createdAt,value
2018-05-29T00:00:14.738Z,20.71
2018-05-29T00:02:49.554Z,20.72
2018-05-29T00:05:22.040Z,20.75
2018-05-29T00:07:55.038Z,20.77
2018-05-29T00:10:27.478Z,20.77
2018-05-29T00:13:00.578Z,20.77
2018-05-29T00:15:33.396Z,20.74
2018-05-29T00:18:05.118Z,20.70
2018-05-29T00:32:33.610Z,20.43
2018-05-29T01:04:51.074Z,20.24
2018-05-29T01:07:23.318Z,20.18
2018-05-29T01:09:55.938Z,20.16
2018-05-29T01:12:29.114Z,20.14
2018-05-29T01:15:01.558Z,20.12
2018-05-29T01:17:33.775Z,20.10
2018-05-29T01:40:57.534Z,19.89
2018-05-29T01:43:29.929Z,19.88
2018-05-29T01:46:02.438Z,19.88
2018-05-29T01:48:36.691Z,19.85
2018-05-29T01:51:08.713Z,19.83
2018-05-29T01:53:41.237Z,19.82
2018-05-29T01:56:14.475Z,19.81
2018-05-29T01:58:48.113Z,19.78
2018-05-29T02:01:21.488Z,19.76
2018-05-29T02:03:53.777Z,19.71
2018-05-29T02:06:28.555Z,19.65
2018-05-29T02:09:00.936Z,19.61
2018-05-29T02:11:33.334Z,19.61
2018-05-29T02:14:05.875Z,19.57
2018-05-29T02:16:37.835Z,19.54
2018-05-29T02:19:10.014Z,19.58
2018-05-29T02:21:42.250Z,19.62
2018-05-29T02:24:14.797Z,19.63
2018-05-29T02:26:46.895Z,19.61
2018-05-29T02:29:19.593Z,19.61
2018-05-29T02:31:52.013Z,19.55
2018-05-29T02:34:24.194Z,19.55
2018-05-29T02:36:57.673Z,19.51
2018-05-29T02:39:30.521Z,19.47
2018-05-29T02:42:02.616Z,19.42
2018-05-29T02:44:35.259Z,19.41
2018-05-29T02:47:08.111Z,19.41
2018-05-29T02:49:40.094Z,19.37
2018-05-29T02:52:13.656Z,19.35
2018-05-29T02:54:45.488Z,19.33
2018-05-29T02:57:17.531Z,19.33
2018-05-29T02:59:50.079Z,19.31
2018-05-29T03:02:21.970Z,19.32
2018-05-29T03:04:54.295Z,19.32
2018-05-29T03:07:26.317Z,19.31
2018-05-29T03:09:58.772Z,19.30
2018-05-29T03:12:31.731Z,19.27
2018-05-29T03:15:04.492Z,19.25
2018-05-29T03:17:37.777Z,19.26
2018-05-29T03:20:09.758Z,19.23
2018-05-29T03:22:42.875Z,19.18
2018-05-29T03:25:15.476Z,19.17
2018-05-29T03:27:49.135Z,19.16
2018-05-29T03:30:21.171Z,19.17
2018-05-29T03:32:53.391Z,19.11
2018-05-29T03:35:26.952Z,19.08
2018-05-29T03:37:58.775Z,19.07
2018-05-29T03:40:30.912Z,19.08
2018-05-29T03:43:03.638Z,19.10
2018-05-29T03:45:36.875Z,19.12
2018-05-29T03:48:10.355Z,19.13
2018-05-29T03:50:43.271Z,19.11
2018-05-29T03:53:15.697Z,19.10
2018-05-29T03:55:47.434Z,19.08
2018-05-29T05:12:53.920Z,20.04
2018-05-29T05:15:26.043Z,20.11
2018-05-29T05:17:59.269Z,20.20
2018-05-29T05:20:33.181Z,20.29
2018-05-29T05:23:09.102Z,20.36
2018-05-29T05:25:44.420Z,20.44
2018-05-29T05:28:16.383Z,20.54
2018-05-29T05:30:50.700Z,20.64
2018-05-29T05:45:20.960Z,20.98
2018-05-29T05:47:54.761Z,21.08
2018-05-29T05:50:29.084Z,21.20
2018-05-29T05:53:03.162Z,21.31
2018-05-29T05:55:38.291Z,21.46
2018-05-29T05:58:10.521Z,21.60
2018-05-29T06:00:45.440Z,21.73
2018-05-29T06:03:18.044Z,21.85
2018-05-29T06:05:56.882Z,21.98
2018-05-29T06:08:31.226Z,22.12
2018-05-29T06:11:04.786Z,22.24
2018-05-29T06:13:40.979Z,22.38
2018-05-29T06:16:21.256Z,22.50
2018-05-29T06:19:00.257Z,22.60
2018-05-29T06:21:33.019Z,22.70
2018-05-29T06:24:09.047Z,22.83
2018-05-29T06:26:41.123Z,23.14
2018-05-29T06:29:14.541Z,23.55
2018-05-29T06:31:50.179Z,23.90
2018-05-29T06:34:25.066Z,24.14
2018-05-29T06:37:00.118Z,24.31
2018-05-29T06:39:32.179Z,24.49
2018-05-29T06:42:05.722Z,24.61
2018-05-29T06:44:40.097Z,24.68
2018-05-29T06:47:16.783Z,24.74
2018-05-29T06:49:49.841Z,24.80
2018-05-29T06:52:22.423Z,24.92
2018-05-29T06:54:56.464Z,25.13
2018-05-29T06:57:36.542Z,25.47
2018-05-29T07:00:09.525Z,25.91
2018-05-29T07:02:47.718Z,26.39
2018-05-29T07:05:27.802Z,26.86
2018-05-29T07:08:00.559Z,27.34
2018-05-29T07:10:35.440Z,27.86
2018-05-29T08:18:40.479Z,31.37
2018-05-29T08:21:13.870Z,31.11
2018-05-29T08:23:47.321Z,30.86
2018-05-29T08:26:20.579Z,30.53
2018-05-29T08:28:52.358Z,30.40
2018-05-29T08:31:24.472Z,30.45
2018-05-29T08:33:57.186Z,30.52
2018-05-29T08:36:29.941Z,30.62
2018-05-29T08:39:02.078Z,30.70
2018-05-29T08:41:35.796Z,30.82
2018-05-29T08:44:09.598Z,30.93
2018-05-29T08:46:46.177Z,31.04
2018-05-29T08:49:21.015Z,31.20
2018-05-29T08:51:54.071Z,31.28
2018-05-29T08:54:26.654Z,31.37
2018-05-29T08:56:59.372Z,31.37
2018-05-29T08:59:35.811Z,31.48
2018-05-29T09:02:09.671Z,31.58
2018-05-29T09:04:43.533Z,31.67
2018-05-29T09:07:16.614Z,31.75
2018-05-29T09:09:51.670Z,31.83
2018-05-29T09:12:25.817Z,31.80
2018-05-29T09:15:00.914Z,31.72
2018-05-29T09:17:35.096Z,31.65
2018-05-29T09:20:08.632Z,31.56
2018-05-29T09:22:47.589Z,31.51
2018-05-29T09:25:20.318Z,31.41
2018-05-29T09:27:53.956Z,31.34
2018-05-29T09:30:26.957Z,31.26
2018-05-29T09:32:58.833Z,31.12
2018-05-29T09:35:32.157Z,31.02
2018-05-29T09:38:12.139Z,30.93
2018-05-29T09:40:44.231Z,30.87
2018-05-29T09:43:16.752Z,30.80
2018-05-29T11:09:15.261Z,31.69
2018-05-29T11:11:48.042Z,31.65
2018-05-29T11:14:31.128Z,31.69
2018-05-29T11:17:04.866Z,31.70
2018-05-29T11:19:42.198Z,31.64
2018-05-29T11:22:18.318Z,31.59
2018-05-29T11:24:51.283Z,31.54
2018-05-29T11:27:23.526Z,31.49
2018-05-29T11:29:57.368Z,31.39
2018-05-29T11:32:33.080Z,31.33
2018-05-29T11:35:10.123Z,31.31
2018-05-29T11:43:45.439Z,31.32
2018-05-29T11:46:18.418Z,31.22
2018-05-29T11:48:51.200Z,31.05
2018-05-29T11:51:25.019Z,30.97
2018-05-29T11:53:58.544Z,30.87
2018-05-29T11:56:32.761Z,30.84
2018-05-29T11:59:08.039Z,30.84
2018-05-29T12:16:36.327Z,30.99
2018-05-29T12:19:12.140Z,31.27
2018-05-29T12:21:46.943Z,31.58
2018-05-29T12:24:19.185Z,31.83
2018-05-29T12:26:53.142Z,32.03
2018-05-29T12:29:28.841Z,32.29
2018-05-29T12:32:07.742Z,32.54
2018-05-29T12:34:41.038Z,32.71
2018-05-29T12:37:16.068Z,32.86
2018-05-29T12:39:51.185Z,32.97
2018-05-29T12:42:24.341Z,33.19
2018-05-29T12:44:59.545Z,33.42
2018-05-29T12:47:33.608Z,33.57
2018-05-29T12:50:07.363Z,33.63
2018-05-29T14:04:06.413Z,33.02
2018-05-29T14:06:42.153Z,32.68
2018-05-29T14:09:14.395Z,32.34
2018-05-29T14:11:50.053Z,32.02
2018-05-29T14:14:21.919Z,31.71
2018-05-29T14:16:55.751Z,31.50
2018-05-29T14:19:29.079Z,31.26
2018-05-29T14:22:07.015Z,31.08
2018-05-29T14:24:43.998Z,30.95
2018-05-29T14:27:20.957Z,30.81
2018-05-29T14:29:54.974Z,30.68
2018-05-29T14:32:30.953Z,30.53
2018-05-29T15:16:36.733Z,28.60
2018-05-29T16:52:19.461Z,27.68
2018-05-29T16:54:52.820Z,27.64
2018-05-29T16:57:29.941Z,27.58
2018-05-29T17:00:04.921Z,27.51
2018-05-29T17:02:40.079Z,27.49
2018-05-29T17:05:14.084Z,27.49
2018-05-29T17:07:46.986Z,27.46
2018-05-29T17:37:00.524Z,26.75
2018-05-29T17:39:33.062Z,26.71
2018-05-29T17:42:06.439Z,26.67
2018-05-29T17:44:38.860Z,26.61
2018-05-29T17:47:11.859Z,26.55
2018-05-29T17:49:45.638Z,26.51
2018-05-29T17:52:20.344Z,26.41
2018-05-29T17:54:54.420Z,26.35
2018-05-29T17:57:27.441Z,26.28
2018-05-29T18:00:02.218Z,26.21
2018-05-29T18:02:37.660Z,26.14
2018-05-29T19:13:42.674Z,24.92
2018-05-29T19:16:16.494Z,24.90
2018-05-29T19:18:51.214Z,24.87
2018-05-29T19:21:24.189Z,24.84
2018-05-29T19:24:00.113Z,24.77
2018-05-29T19:26:35.136Z,24.69
2018-05-29T19:29:09.252Z,24.64
2018-05-29T19:31:44.472Z,24.61
2018-05-29T19:34:20.317Z,24.53
2018-05-29T19:36:53.251Z,24.47
2018-05-29T19:39:25.179Z,24.41
2018-05-29T19:42:00.700Z,24.32
2018-05-29T19:44:33.878Z,24.29
2018-05-29T19:47:07.795Z,24.31
2018-05-29T19:49:39.908Z,24.34
2018-05-29T19:52:13.616Z,24.37
2018-05-29T19:54:47.652Z,24.39
2018-05-29T19:57:21.118Z,24.43
2018-05-29T19:59:54.832Z,24.35
2018-05-29T20:02:30.942Z,24.23
2018-05-29T20:05:05.220Z,24.12
2018-05-29T21:25:18.262Z,22.62
2018-05-29T21:27:51.019Z,22.63
2018-05-29T21:30:23.235Z,22.58
2018-05-29T21:32:55.621Z,22.55
2018-05-29T21:35:27.775Z,22.50
2018-05-29T21:38:00.120Z,22.50
2018-05-29T21:40:32.469Z,22.48
2018-05-29T21:49:01.722Z,22.40
2018-05-29T21:51:35.183Z,22.35
2018-05-29T21:54:08.562Z,22.30
2018-05-29T21:56:42.001Z,22.25
2018-05-29T21:59:14.399Z,22.23
2018-05-29T22:01:47.097Z,22.20
2018-05-29T22:04:19.559Z,22.18
2018-05-29T22:06:51.724Z,22.18
2018-05-29T22:09:24.412Z,22.21
2018-05-29T22:34:08.346Z,21.66
2018-05-29T22:36:41.175Z,21.63
2018-05-29T22:39:13.793Z,21.62
2018-05-29T22:41:46.371Z,21.64
2018-05-29T22:44:18.624Z,21.66
2018-05-29T22:46:51.007Z,21.66
2018-05-29T22:49:24.229Z,21.64
2018-05-29T22:51:58.408Z,21.56
2018-05-29T22:54:30.416Z,21.44
2018-05-29T22:57:03.589Z,21.39
2018-05-29T22:59:37.912Z,21.39
2018-05-29T23:02:10.309Z,21.41
2018-05-29T23:04:42.388Z,21.41
2018-05-29T23:07:14.832Z,21.40
2018-05-29T23:09:47.245Z,21.38
2018-05-29T23:12:20.230Z,21.34
2018-05-29T23:14:52.776Z,21.31
2018-05-29T23:17:25.933Z,21.19
2018-05-29T23:19:58.070Z,21.10
2018-05-29T23:22:30.504Z,21.08
2018-05-29T23:25:02.464Z,21.12
2018-05-29T23:27:34.726Z,21.15
2018-05-29T23:30:06.895Z,21.17
2018-05-29T23:32:40.105Z,21.17
2018-05-29T23:35:12.587Z,21.18
2018-05-29T23:37:45.247Z,21.18
2018-05-29T23:40:17.575Z,21.21
2018-05-29T23:42:52.072Z,21.23
2018-05-29T23:45:24.443Z,21.26
2018-05-29T23:47:57.485Z,21.30
2018-05-29T23:50:29.765Z,21.31
2018-05-29T23:53:02.092Z,21.31
2018-05-29T23:55:34.285Z,21.30
2018-05-29T23:58:06.728Z,21.28
